Waunakee, WI

3:48 AM CDT on October 26, 2014 (GMT -0500)
4th Street Weather | Change Station
CLOSE
Current Station
Personal Weather Station
Location: Waunakee, WI
Elevation: 942 ft
Nearby Weather Stations

Elev 942 ft 43.19 °N, 89.46 °W | Updated 4 seconds ago

Clear
Clear
41.2 °F
Feels Like 41 °F
N
0.0
Wind Variable Wind from West
Gusts 0.0 mph

Today
High -- | Low -- °F
--% Chance of Precip.
Yesterday
High -- | Low -- °F
Precip. -- in
7:25 AM 5:57 PM
Waxing Crescent, 6% visible
Pressure 30.02 in
Visibility 10.0 miles
Clouds Clear
Windchill 41 °F
Dew Point 31 °F
Humidity 67%
Rainfall 0.00 in
Snow Depth Not available.
UV 0 out of 12
Pollen 1.60 out of 12
PM2.5 Good
Flu Activity Sporadic
METAR KC29 260835Z AUTO 00000KT 10SM CLR 05/M02 A3002 RMK AO1 T00521020

More Conditions Fewer Conditions

Pressure 30.02 in
Visibility 10.0 miles
Clouds Clear
Windchill 41 °F
Dew Point 31 °F
Humidity 67%
Rainfall 0.00 in
Snow Depth Not available.
UV 0 out of 12
Pollen 1.60 out of 12
PM2.5 Good
Flu Activity Sporadic
METAR KC29 260835Z AUTO 00000KT 10SM CLR 05/M02 A3002 RMK AO1 T00521020

More Conditions Fewer Conditions

10-Day Weather Forecast

Almanac

Astronomy

Oct. 26, 2014 Rise Set
Actual Time 7:25 AM CDT 5:57 PM CDT
Civil Twilight 6:55 AM CDT 6:27 PM CDT
Nautical Twilight 6:22 AM CDT 7:00 PM CDT
Astronomical Twilight 5:49 AM CDT 7:33 PM CDT
Moon 10:06 AM CDT 8:06 PM CDT
Length of Visible Light 11h 31m
Length of Day
10h 32m
Tomorrow will be 2m 41s shorter.
Waxing Crescent, 6% of the Moon is Illuminated
Today
Waxing Crescent
Oct 30
First Quarter
Nov 6
Full
Nov 14
Last Quarter
Nov 22
New

Today's Extremes

State Highs State Lows

Community

WunderPhotos

Upload Photos

1,765,127 photos uploaded!

Nearby

Air Quality

  Air Quality AQ Index Pollutant
Yesterday Good
PM2.5
Current Good
PM2.5
Sunday Good
PM2.5
Monday Moderate
PM2.5

Snow Depth

Station Depth Elevation
No new snow has been reported.

Earthquake Activity

City Distance Mag. Time & Date
No recent earthquake activity has been reported nearby.
Minimum magnitude displayed is 2.5.

Coastal Water Temperatures

Place Temperature
No Stations Reporting

Nearby Weather Stations